Cantaura, Venezuela
Current Conditions -  °F | °C
As of 8:00 PM on Sunday 23 Nov 2014 (Local Time) from SVBC Reporting Station
Scattered Clouds Scattered Clouds  
Wind Chill: 29°   Ceiling: Unl
Heat Index: 36°   Visibility: 6mi
Dew Point: 26°   Wind: 9mph
Humidity: 84%   Direction: 20°NNE
Pressure: 29.74"   Gusts: NA
Location:  9.31°N, 64.37°W
Report Text: SVBC 240000Z 02008KT 9999 SCT010 29/26 Q1007
Loading
Personal Weather Stations






























Interactive Weather Map New forecast layout! Learn more

10-Day Weather Forecast

Advertisements
Track Severe Weather on mobile